Flight Track Log - Related Links

Times and Time Zones

All times are in EDT time to prevent confusion due to time zone crossing. See the FFT247 flight status page for this flight to view local times or setup timezone preferences in your user account.

Time Position Orientation Groundspeed Altitude Reporting Facility
EDT Latitude Longitude Course Direction KTS MPH feet Rate Location/Type
Tue 10:06:37 AM 46.8956 -96.8233 222° Southwest 152 175 2,000  Level Minneapolis Center
Tue 10:07:39 AM 46.8511 -96.8808 222° Southwest 209 241 3,600 2,468 Climbing Minneapolis Center
Tue 10:08:41 AM 46.8008 -96.9503 223° Southwest 251 289 7,100 3,366 Climbing Minneapolis Center
Tue 10:09:42 AM 46.7450 -97.0294 224° Southwest 265 305 10,500 2,829 Climbing Minneapolis Center
Tue 10:10:44 AM 46.6806 -97.1217 224° Southwest 308 354 12,900 2,613 Climbing Minneapolis Center
Tue 10:11:46 AM 46.6108 -97.2194 224° Southwest 331 381 15,900 2,613 Climbing Minneapolis Center
Tue 10:12:48 AM 46.5369 -97.3236 224° Southwest 354 407 18,300 2,226 Climbing Minneapolis Center
Tue 10:13:50 AM 46.4694 -97.4197 224° Southwest 362 417 20,500 2,081 Climbing Minneapolis Center
Tue 10:14:52 AM 46.3906 -97.5269 223° Southwest 382 440 22,600 1,887 Climbing Minneapolis Center
Tue 10:15:54 AM 46.3094 -97.6386 224° Southwest 400 460 24,400 1,790 Climbing Minneapolis Center
Tue 10:16:56 AM 46.2253 -97.7556 224° Southwest 417 480 26,300 1,839 Climbing Minneapolis Center
Tue 10:17:58 AM 46.1211 -97.8986 224° Southwest 431 496 28,200 1,632 Climbing Minneapolis Center
Tue 10:19:12 AM 46.0136 -98.0444 223° Southwest 442 509 30,000 1,412 Climbing Minneapolis Center
Tue 10:20:14 AM 45.9275 -98.1642 224° Southwest 450 518 31,400 1,403 Climbing Minneapolis Center
Tue 10:21:16 AM 45.8353 -98.2900 224° Southwest 454 522 32,900 1,645 Climbing Minneapolis Center
Tue 10:22:18 AM 45.7236 -98.4364 222° Southwest 454 522 34,800 1,790 Climbing Minneapolis Center
Tue 10:23:20 AM 45.6333 -98.5567 223° Southwest 448 516 36,600 1,248 Climbing Minneapolis Center
Tue 10:24:23 AM 45.5453 -98.6767 224° Southwest 440 506 37,400 672 Climbing Minneapolis Center
Tue 10:25:25 AM 45.4556 -98.7944 223° Southwest 438 504 38,000 290 Climbing Minneapolis Center
Tue 10:26:27 AM 45.3658 -98.9117 223° Southwest 438 504 38,000  Level Minneapolis Center
Tue 10:27:29 AM 45.2778 -99.0281 223° Southwest 434 499 38,000  Level Minneapolis Center
Tue 10:28:31 AM 45.1886 -99.1444 223° Southwest 434 499 38,000  Level Minneapolis Center
Tue 10:29:33 AM 45.0814 -99.2844 223° Southwest 435 501 38,000  Level Minneapolis Center
Tue 10:30:35 AM 44.9919 -99.3997 222° Southwest 433 498 38,000  Level Minneapolis Center
Tue 10:31:37 AM 44.9031 -99.5156 223° Southwest 431 496 38,000  Level Minneapolis Center
Tue 10:32:39 AM 44.8142 -99.6297 222° Southwest 429 494 38,000  Level Minneapolis Center
Tue 10:33:41 AM 44.7239 -99.7447 222° Southwest 432 497 38,000  Level Minneapolis Center
Tue 10:34:42 AM 44.6339 -99.8592 222° Southwest 433 498 38,000  Level Minneapolis Center
Tue 10:35:44 AM 44.5439 -99.9733 222° Southwest 433 498 38,000  Level Minneapolis Center
Tue 10:36:46 AM 44.4536 -100.0878 222° Southwest 435 501 38,000  Level Minneapolis Center
Tue 10:37:48 AM 44.3464 -100.2278 223° Southwest 438 504 38,000  Level Minneapolis Center
Tue 10:38:50 AM 44.2583 -100.3528 225° Southwest 445 512 38,000 48 Level Minneapolis Center
Tue 10:39:52 AM 44.1711 -100.4736 225° Southwest 444 511 38,100  Climbing Minneapolis Center
Tue 10:40:54 AM 44.0836 -100.5958 225° Southwest 444 511 38,000 -48 Descending Minneapolis Center
Tue 10:41:57 AM 43.9983 -100.7161 225° Southwest 441 507 38,000  Level Minneapolis Center
Tue 10:42:59 AM 43.9114 -100.8339 224° Southwest 437 503 38,000  Level Minneapolis Center
Tue 10:44:01 AM 43.8261 -100.9542 226° Southwest 438 504 38,000  Level Minneapolis Center
Tue 10:45:03 AM 43.7206 -101.0917 223° Southwest 436 502 38,000  Level Minneapolis Center
Tue 10:46:05 AM 43.6206 -101.1903 216° Southwest 438 504 38,000  Level Minneapolis Center
Tue 10:46:34 AM 43.5764 -101.2211 207° Southwest 441 507 38,000  Level Denver Center
Tue 10:47:36 AM 43.4739 -101.3136 213° Southwest 440 506 38,000  Level Denver Center
Tue 10:48:38 AM 43.3533 -101.4236 214° Southwest 436 502 38,000  Level Denver Center
Tue 10:49:40 AM 43.2522 -101.5133 213° Southwest 433 498 38,000  Level Denver Center
Tue 10:50:42 AM 43.1519 -101.6042 213° Southwest 430 495 38,000  Level Denver Center
Tue 10:51:44 AM 43.0511 -101.6933 213° Southwest 424 488 38,000  Level Denver Center
Tue 10:52:46 AM 42.9403 -101.7906 213° Southwest 422 486 38,000  Level Denver Center
Tue 10:54:21 AM 42.7953 -101.9164 213° Southwest 423 487 38,000  Level Minneapolis Center
Tue 10:54:50 AM 42.7400 -101.9681 214° Southwest 421 484 38,000  Level Denver Center
Tue 10:55:52 AM 42.6450 -102.0508 213° Southwest 423 487 38,000  Level Denver Center
Tue 10:56:54 AM 42.5339 -102.1475 213° Southwest 425 489 38,000  Level Denver Center
Tue 10:57:57 AM 42.4392 -102.2297 213° Southwest 423 487 38,000 -288 Level Denver Center
Tue 10:58:59 AM 42.3286 -102.3258 213° Southwest 423 487 37,400 -484 Descending Denver Center
Tue 11:00:01 AM 42.2322 -102.4103 213° Southwest 431 496 37,000 -435 Descending Denver Center
Tue 11:01:03 AM 42.1350 -102.4922 212° Southwest 430 495 36,500 -484 Descending Denver Center
Tue 11:02:05 AM 42.0217 -102.5897 213° Southwest 431 496 36,000 -242 Descending Denver Center
Tue 11:03:07 AM 41.9269 -102.6706 212° Southwest 423 487 36,000 -290 Level Denver Center
Tue 11:04:09 AM 41.8175 -102.7633 212° Southwest 418 481 35,400 -581 Descending Denver Center
Tue 11:05:11 AM 41.7231 -102.8436 212° Southwest 419 482 34,800 -581 Descending Denver Center
Tue 11:06:13 AM 41.6128 -102.9369 212° Southwest 419 482 34,200 -581 Descending Denver Center
Tue 11:07:15 AM 41.5183 -103.0156 212° Southwest 417 480 33,600 -581 Descending Denver Center
Tue 11:08:17 AM 41.4094 -103.1064 212° Southwest 413 475 33,000 -581 Descending Denver Center
Tue 11:09:19 AM 41.3156 -103.1847 212° Southwest 414 476 32,400 -484 Descending Denver Center
Tue 11:10:21 AM 41.2053 -103.2778 212° Southwest 418 481 32,000 -194 Descending Denver Center
Tue 11:11:23 AM 41.1100 -103.3556 212° Southwest 419 482 32,000 -48 Level Denver Center
Tue 11:12:25 AM 41.0158 -103.4333 212° Southwest 417 480 31,900 -1,355 Descending Denver Center
Tue 11:13:27 AM 40.9017 -103.5211 210° Southwest 416 479 29,200 -2,806 Descending Denver Center
Tue 11:14:29 AM 40.7886 -103.5772 201° Southwest 431 496 26,100 -2,613 Descending Denver Center
Tue 11:15:31 AM 40.6808 -103.6297 200° South 415 478 23,800 -2,129 Descending Denver Center
Tue 11:16:33 AM 40.5844 -103.6969 208° Southwest 393 452 21,700 -1,694 Descending Denver Center
Tue 11:17:35 AM 40.5119 -103.7936 225° Southwest 373 429 20,300 -1,355 Descending Denver Center
Tue 11:18:37 AM 40.4356 -103.8997 227° Southwest 373 429 18,900 -1,258 Descending Denver Center
Tue 11:19:39 AM 40.3617 -104.0031 227° Southwest 365 420 17,700 -1,113 Descending Denver Center
Tue 11:20:41 AM 40.3269 -104.1267 250° West 360 414 16,600 -1,306 Descending Denver Center
Tue 11:21:43 AM 40.2994 -104.2631 255° West 352 405 15,000 -1,645 Descending Denver Center
Tue 11:22:45 AM 40.2647 -104.3764 248° West 342 394 13,200 -1,742 Descending Denver Center
Tue 11:23:47 AM 40.2244 -104.4947 246° West 333 383 11,400 -1,355 Descending Denver Center
Tue 11:24:49 AM 40.1519 -104.5608 215° Southwest 321 369 10,400 -1,307 Descending Denver Center
Tue 11:25:28 AM 40.1000 -104.6000 210° Southwest 285 328 9,200 -1,455 Descending Denver TRACON
Tue 11:26:28 AM 40.0333 -104.6333 201° Southwest 249 287 8,000 -1,129 Descending Denver TRACON
Tue 11:26:53 AM 40.0167 -104.6522 221° Southwest 250 288 7,600 -690 Descending Denver Center
Tue 11:27:55 AM 39.9606 -104.6828 203° Southwest 199 229 7,000 -864 Descending Denver Center
Tue 11:28:58 AM 39.9153 -104.6869 184° South 167 192 5,800 -768 Descending Denver Center
Tue 11:30:00 AM 39.8792 -104.6878 181° South 138 159 5,400 -387 Descending Denver Center
Tue 11:31:00 AM 39.8617 -104.6732 190° South  Level Estimated
Tue 11:38:00 AM 39.8617 -104.6732 190° South  Level Estimated
Tue 11:39:00 AM 39.8617 -104.6732 190° South  Level Estimated

Login

Don't have an account? Register now (free) for customized features, flight alerts, and more!